Time;durP1;ratioP1;P1;durP2;ratioP2;P2;SDS_P1;SDS_P2;PMS_P1;PMS_P2;Temp;Humidity;BMP_temperature;BMP_pressure;BME280_temperature;BME280_humidity;BME280_pressure;Samples;Min_cycle;Max_cycle;Signal;HPM_P1;HPM_P2
2022/04/16 00:01:29;;;;;;;14.30;10.10;;;;;;;;;;5041130;28;20207;-77
2022/04/16 00:03:55;;;;;;;13.30;9.53;;;;;;;;;;5075222;28;20235;-79
2022/04/16 00:06:24;;;;;;;13.30;9.40;;;;;;;;;;5072684;28;20241;-79
2022/04/16 00:08:49;;;;;;;14.13;9.20;;;;;;;;;;5054878;28;20327;-79
2022/04/16 00:11:15;;;;;;;11.33;8.93;;;;;;;;;;5035647;28;20348;-78
2022/04/16 00:13:42;;;;;;;14.30;8.30;;;;;;;;;;5036888;28;20453;-79
2022/04/16 00:16:10;;;;;;;12.17;8.50;;;;;;;;;;5068193;28;20594;-78
2022/04/16 00:18:36;;;;;;;14.33;8.50;;;;;;;;;;5063346;28;20226;-79
2022/04/16 00:21:04;;;;;;;13.60;8.57;;;;;;;;;;5046740;28;20315;-78
2022/04/16 00:23:30;;;;;;;10.63;7.90;;;;;;;;;;5061994;28;20234;-78
2022/04/16 00:25:56;;;;;;;8.37;6.97;;;;;;;;;;5060303;28;20251;-78
2022/04/16 00:28:21;;;;;;;10.53;6.60;;;;;;;;;;5049512;28;20283;-76
2022/04/16 00:30:47;;;;;;;8.73;5.27;;;;;;;;;;5065088;28;20220;-81
2022/04/16 00:33:12;;;;;;;10.40;5.53;;;;;;;;;;5066083;28;20258;-80
2022/04/16 00:35:39;;;;;;;8.10;4.90;;;;;;;;;;5016970;28;20215;-80
2022/04/16 00:38:08;;;;;;;7.70;5.00;;;;;;;;;;5058399;28;20215;-79
2022/04/16 00:40:34;;;;;;;7.67;4.00;;;;;;;;;;5071070;28;20267;-79
2022/04/16 00:43:00;;;;;;;5.67;3.50;;;;;;;;;;5047371;28;20218;-79
2022/04/16 00:45:31;;;;;;;4.27;2.87;;;;;;;;;;5031818;28;20234;-79
2022/04/16 00:47:59;;;;;;;4.17;2.60;;;;;;;;;;5044686;28;20221;-79
2022/04/16 00:50:27;;;;;;;3.60;2.40;;;;;;;;;;5058088;28;20306;-79
2022/04/16 00:52:57;;;;;;;2.77;1.90;;;;;;;;;;5043856;28;20219;-79
2022/04/16 00:55:23;;;;;;;3.53;2.00;;;;;;;;;;5053298;28;20742;-79
2022/04/16 00:57:51;;;;;;;3.67;2.00;;;;;;;;;;5053729;28;20216;-79
2022/04/16 01:00:17;;;;;;;2.43;1.70;;;;;;;;;;5051133;28;20606;-79
2022/04/16 01:02:46;;;;;;;3.33;1.87;;;;;;;;;;5054313;28;20219;-77
2022/04/16 01:05:12;;;;;;;3.73;1.73;;;;;;;;;;5035754;28;20214;-79
2022/04/16 01:07:53;;;;;;;2.93;1.47;;;;;;;;;;5070640;28;20291;-79
2022/04/16 01:10:20;;;;;;;1.70;1.30;;;;;;;;;;5055555;28;20247;-77
2022/04/16 01:12:46;;;;;;;1.63;1.37;;;;;;;;;;5056881;28;20318;-79
2022/04/16 01:15:13;;;;;;;1.57;1.47;;;;;;;;;;5070677;28;20278;-79
2022/04/16 01:17:40;;;;;;;2.43;1.47;;;;;;;;;;5057548;28;20222;-78
2022/04/16 01:20:11;;;;;;;2.17;1.30;;;;;;;;;;5026991;28;20616;-79
2022/04/16 01:22:36;;;;;;;1.83;1.23;;;;;;;;;;5064612;28;20299;-79
2022/04/16 01:25:01;;;;;;;1.53;1.20;;;;;;;;;;5031593;28;20230;-78
2022/04/16 01:27:27;;;;;;;2.30;1.40;;;;;;;;;;5049569;28;20226;-79
2022/04/16 01:29:55;;;;;;;1.80;1.50;;;;;;;;;;5052608;28;20226;-79
2022/04/16 01:32:23;;;;;;;2.33;1.40;;;;;;;;;;5048038;28;20227;-79
2022/04/16 01:34:49;;;;;;;1.83;1.40;;;;;;;;;;5030193;28;20219;-79
2022/04/16 01:37:18;;;;;;;2.27;1.20;;;;;;;;;;5068612;28;20309;-77
2022/04/16 01:39:46;;;;;;;3.23;1.50;;;;;;;;;;5052820;28;20253;-78
2022/04/16 01:42:14;;;;;;;4.47;1.80;;;;;;;;;;5057186;28;20223;-79
2022/04/16 01:44:40;;;;;;;1.30;1.20;;;;;;;;;;5059216;28;20657;-79
2022/04/16 01:47:06;;;;;;;2.70;1.40;;;;;;;;;;5072607;28;20215;-79
2022/04/16 01:49:34;;;;;;;1.80;1.53;;;;;;;;;;5019197;28;20646;-79
2022/04/16 01:52:00;;;;;;;2.00;1.37;;;;;;;;;;5049634;28;20250;-79
2022/04/16 01:54:27;;;;;;;1.93;1.50;;;;;;;;;;5068463;28;20253;-78
2022/04/16 01:56:56;;;;;;;1.80;1.40;;;;;;;;;;5057450;28;20219;-78
2022/04/16 01:59:25;;;;;;;2.23;1.40;;;;;;;;;;5070135;28;20237;-79
2022/04/16 02:01:50;;;;;;;4.10;1.60;;;;;;;;;;5068231;28;20214;-79
2022/04/16 02:04:17;;;;;;;1.90;1.50;;;;;;;;;;5059992;28;20610;-79
2022/04/16 02:06:42;;;;;;;2.87;1.60;;;;;;;;;;5068879;28;20243;-77
2022/04/16 02:09:07;;;;;;;2.60;1.50;;;;;;;;;;5058709;28;20252;-78
2022/04/16 02:11:33;;;;;;;2.60;1.27;;;;;;;;;;5070451;28;20245;-78
2022/04/16 02:14:02;;;;;;;1.93;1.40;;;;;;;;;;5028162;28;20218;-79
2022/04/16 02:16:27;;;;;;;2.13;1.30;;;;;;;;;;5076407;28;20230;-77
2022/04/16 02:18:53;;;;;;;2.30;1.07;;;;;;;;;;5060349;28;20227;-78
2022/04/16 02:21:19;;;;;;;2.20;1.30;;;;;;;;;;5059066;28;20298;-79
2022/04/16 02:23:45;;;;;;;2.03;1.17;;;;;;;;;;5034697;28;20226;-79
2022/04/16 02:26:11;;;;;;;2.10;1.40;;;;;;;;;;5029913;28;20216;-79
2022/04/16 02:28:38;;;;;;;3.93;1.43;;;;;;;;;;5046706;28;20218;-78
2022/04/16 02:31:06;;;;;;;2.23;1.10;;;;;;;;;;5056108;28;20276;-77
2022/04/16 02:33:32;;;;;;;3.73;1.40;;;;;;;;;;5074478;28;20246;-79
2022/04/16 02:35:57;;;;;;;3.40;1.50;;;;;;;;;;5042643;28;20226;-78
2022/04/16 02:38:23;;;;;;;2.00;1.13;;;;;;;;;;5044665;28;20346;-79
2022/04/16 02:40:51;;;;;;;2.37;1.20;;;;;;;;;;5057914;28;20352;-78
2022/04/16 02:43:16;;;;;;;4.00;1.13;;;;;;;;;;5045807;28;20219;-79
2022/04/16 02:48:26;;;;;;;3.57;1.20;;;;;;;;;;5067763;28;20666;-79
2022/04/16 02:50:56;;;;;;;3.20;1.40;;;;;;;;;;5049344;28;20241;-79
2022/04/16 02:53:21;;;;;;;2.70;1.30;;;;;;;;;;5053231;28;20224;-79
2022/04/16 02:55:47;;;;;;;4.33;1.40;;;;;;;;;;5043154;28;20219;-78
2022/04/16 02:58:14;;;;;;;4.13;1.30;;;;;;;;;;5058270;28;20590;-79
2022/04/16 03:00:41;;;;;;;2.33;1.30;;;;;;;;;;5060262;28;20215;-79
2022/04/16 03:03:08;;;;;;;2.97;1.40;;;;;;;;;;5071102;28;20219;-78
2022/04/16 03:05:34;;;;;;;3.00;1.40;;;;;;;;;;5057321;28;20747;-80
2022/04/16 03:08:00;;;;;;;2.90;1.30;;;;;;;;;;5049074;28;20219;-80
2022/04/16 03:10:26;;;;;;;2.47;1.50;;;;;;;;;;5036682;28;20235;-78
2022/04/16 03:12:55;;;;;;;2.33;1.37;;;;;;;;;;5050323;28;20296;-80
2022/04/16 03:18:07;;;;;;;1.97;1.30;;;;;;;;;;5041270;28;20215;-80
2022/04/16 03:20:33;;;;;;;2.80;1.50;;;;;;;;;;5037632;28;20234;-79
2022/04/16 03:22:58;;;;;;;2.47;1.30;;;;;;;;;;5029103;28;20280;-79
2022/04/16 03:25:25;;;;;;;2.70;1.80;;;;;;;;;;5047284;28;20265;-79
2022/04/16 03:27:51;;;;;;;2.67;1.67;;;;;;;;;;5058678;28;20302;-79
2022/04/16 03:30:18;;;;;;;1.93;1.30;;;;;;;;;;5062581;28;20318;-79
2022/04/16 03:32:46;;;;;;;3.47;1.47;;;;;;;;;;5056835;28;20237;-79
2022/04/16 03:35:11;;;;;;;3.07;1.57;;;;;;;;;;5048652;28;20215;-79
2022/04/16 03:37:40;;;;;;;2.50;1.50;;;;;;;;;;5049361;28;20224;-79
2022/04/16 03:40:06;;;;;;;3.00;1.60;;;;;;;;;;5038314;28;20658;-78
2022/04/16 03:42:31;;;;;;;3.83;1.70;;;;;;;;;;5054160;28;20223;-79
2022/04/16 03:44:58;;;;;;;3.73;1.53;;;;;;;;;;5054662;28;20216;-80
2022/04/16 03:47:25;;;;;;;2.93;1.53;;;;;;;;;;5046493;28;20219;-80
2022/04/16 03:49:51;;;;;;;2.10;1.50;;;;;;;;;;5056768;28;20236;-78
2022/04/16 03:52:17;;;;;;;3.17;1.70;;;;;;;;;;5016775;28;20282;-79
2022/04/16 04:00:19;;;;;;;4.20;1.50;;;;;;;;;;5074274;28;20239;-77
2022/04/16 04:02:44;;;;;;;3.43;1.43;;;;;;;;;;5078663;28;20295;-79
2022/04/16 04:05:13;;;;;;;4.03;1.53;;;;;;;;;;5036657;28;20247;-79
2022/04/16 04:07:38;;;;;;;3.27;1.67;;;;;;;;;;5068788;28;20582;-79
2022/04/16 04:10:06;;;;;;;4.00;1.60;;;;;;;;;;5041053;28;20224;-78
2022/04/16 04:12:31;;;;;;;2.40;1.70;;;;;;;;;;5060781;28;20227;-79
2022/04/16 04:14:58;;;;;;;4.43;1.77;;;;;;;;;;5079500;28;20250;-77
2022/04/16 04:17:23;;;;;;;3.80;1.87;;;;;;;;;;5088128;28;20234;-77
2022/04/16 04:19:49;;;;;;;3.10;1.80;;;;;;;;;;5063999;28;20223;-77
2022/04/16 04:22:16;;;;;;;2.70;1.63;;;;;;;;;;5058055;28;20282;-76
2022/04/16 04:24:41;;;;;;;6.63;1.87;;;;;;;;;;5057899;28;20219;-79
2022/04/16 04:27:09;;;;;;;4.80;1.80;;;;;;;;;;5056903;28;20222;-80
2022/04/16 04:29:35;;;;;;;3.93;1.93;;;;;;;;;;5040496;28;20224;-78
2022/04/16 04:32:00;;;;;;;2.57;1.97;;;;;;;;;;5039809;28;20219;-79
2022/04/16 04:34:26;;;;;;;4.23;2.10;;;;;;;;;;5035884;28;20225;-79
2022/04/16 04:36:51;;;;;;;4.30;1.90;;;;;;;;;;5040171;28;20257;-79
2022/04/16 04:39:17;;;;;;;5.10;2.10;;;;;;;;;;5076121;28;20214;-78
2022/04/16 04:41:45;;;;;;;2.90;1.70;;;;;;;;;;5049143;28;20509;-79
2022/04/16 04:44:13;;;;;;;2.13;1.70;;;;;;;;;;5043457;28;20223;-80
2022/04/16 04:46:41;;;;;;;3.90;1.90;;;;;;;;;;5038604;28;20313;-80
2022/04/16 04:49:11;;;;;;;3.67;2.20;;;;;;;;;;5035100;28;20246;-79
2022/04/16 04:51:39;;;;;;;3.83;2.00;;;;;;;;;;5039698;28;20223;-77
2022/04/16 04:54:07;;;;;;;2.80;1.80;;;;;;;;;;5060844;28;20224;-80
2022/04/16 04:56:38;;;;;;;5.07;2.30;;;;;;;;;;5045828;28;20279;-78
2022/04/16 04:59:04;;;;;;;3.33;2.13;;;;;;;;;;5071258;28;20233;-77
2022/04/16 05:01:29;;;;;;;3.33;2.20;;;;;;;;;;5060741;28;20222;-77
2022/04/16 05:03:57;;;;;;;3.87;2.10;;;;;;;;;;5077942;28;20219;-78
2022/04/16 05:06:22;;;;;;;4.33;2.20;;;;;;;;;;5045857;28;20231;-79
2022/04/16 05:08:48;;;;;;;3.23;1.97;;;;;;;;;;5057334;28;20228;-78
2022/04/16 05:11:13;;;;;;;4.60;2.20;;;;;;;;;;5038607;28;20593;-77
2022/04/16 05:13:39;;;;;;;3.67;2.03;;;;;;;;;;5062703;28;20250;-77
2022/04/16 05:16:04;;;;;;;3.00;2.33;;;;;;;;;;5083257;28;20223;-78
2022/04/16 05:18:32;;;;;;;5.27;2.27;;;;;;;;;;5061831;28;20254;-79
2022/04/16 05:21:00;;;;;;;2.77;2.23;;;;;;;;;;5042384;28;20219;-78
2022/04/16 05:23:26;;;;;;;5.67;2.67;;;;;;;;;;5076428;28;20226;-77
2022/04/16 05:25:54;;;;;;;4.40;2.30;;;;;;;;;;5049062;28;20222;-79
2022/04/16 05:28:19;;;;;;;5.70;2.77;;;;;;;;;;5067633;28;20226;-78
2022/04/16 05:30:48;;;;;;;3.70;2.40;;;;;;;;;;5067034;28;20231;-77
2022/04/16 05:36:00;;;;;;;3.53;2.60;;;;;;;;;;5074813;28;20226;-77
2022/04/16 05:38:25;;;;;;;4.53;2.57;;;;;;;;;;5055731;28;20664;-76
2022/04/16 05:40:53;;;;;;;5.70;2.37;;;;;;;;;;5045128;28;20217;-77
2022/04/16 05:43:21;;;;;;;3.63;2.30;;;;;;;;;;5019537;28;20222;-80
2022/04/16 05:45:49;;;;;;;3.93;2.20;;;;;;;;;;5042675;28;20233;-77
2022/04/16 05:48:17;;;;;;;3.57;2.13;;;;;;;;;;5057104;28;20222;-78
2022/04/16 05:50:42;;;;;;;4.50;2.40;;;;;;;;;;5016417;28;20223;-79
2022/04/16 05:53:09;;;;;;;3.73;2.03;;;;;;;;;;5016519;28;20219;-79
2022/04/16 05:55:34;;;;;;;4.17;2.33;;;;;;;;;;5038823;28;20236;-77
2022/04/16 05:58:00;;;;;;;4.67;2.40;;;;;;;;;;5051705;28;20260;-77
2022/04/16 06:00:28;;;;;;;2.90;2.50;;;;;;;;;;5021835;28;20226;-79
2022/04/16 06:02:56;;;;;;;4.67;2.47;;;;;;;;;;5037116;28;20774;-79
2022/04/16 06:05:24;;;;;;;4.80;2.47;;;;;;;;;;5041377;28;20226;-79
2022/04/16 06:07:53;;;;;;;4.43;2.20;;;;;;;;;;5025095;28;20289;-79
2022/04/16 06:10:18;;;;;;;3.53;2.20;;;;;;;;;;5037539;28;20227;-80
2022/04/16 06:12:44;;;;;;;3.73;2.00;;;;;;;;;;5058016;28;20259;-79
2022/04/16 06:15:12;;;;;;;3.47;1.77;;;;;;;;;;5065821;28;20671;-79
2022/04/16 06:17:39;;;;;;;4.10;1.93;;;;;;;;;;5051435;28;20218;-78
2022/04/16 06:20:08;;;;;;;3.43;1.83;;;;;;;;;;5047026;28;20719;-79
2022/04/16 06:22:36;;;;;;;3.20;1.93;;;;;;;;;;5047230;28;20220;-79
2022/04/16 06:25:01;;;;;;;3.50;1.73;;;;;;;;;;5065555;28;20289;-79
2022/04/16 06:27:27;;;;;;;4.03;1.80;;;;;;;;;;5073902;28;20697;-80
2022/04/16 06:29:55;;;;;;;3.23;1.70;;;;;;;;;;5059247;28;20231;-79
2022/04/16 06:32:22;;;;;;;2.63;1.50;;;;;;;;;;5043104;28;20715;-79
2022/04/16 06:34:53;;;;;;;2.30;1.40;;;;;;;;;;5063437;28;20301;-79
2022/04/16 06:37:18;;;;;;;4.67;1.50;;;;;;;;;;5073619;28;20222;-77
2022/04/16 06:39:43;;;;;;;2.27;1.13;;;;;;;;;;5064877;28;20262;-79
2022/04/16 06:42:09;;;;;;;4.60;1.60;;;;;;;;;;5048322;28;20277;-78
2022/04/16 06:44:35;;;;;;;3.80;1.60;;;;;;;;;;5024637;28;20310;-80
2022/04/16 06:47:01;;;;;;;1.93;1.20;;;;;;;;;;5069976;28;20242;-79
2022/04/16 06:49:26;;;;;;;2.10;1.40;;;;;;;;;;5066610;28;20806;-78
2022/04/16 06:51:52;;;;;;;1.57;1.20;;;;;;;;;;5070253;28;20608;-78
2022/04/16 06:54:20;;;;;;;2.60;1.00;;;;;;;;;;5033071;28;20226;-77
2022/04/16 06:56:45;;;;;;;3.37;1.33;;;;;;;;;;5039172;28;20220;-79
2022/04/16 06:59:10;;;;;;;2.93;1.40;;;;;;;;;;5055076;28;20686;-78
2022/04/16 07:01:38;;;;;;;2.30;1.00;;;;;;;;;;5068575;28;20305;-77
2022/04/16 07:04:05;;;;;;;2.40;1.13;;;;;;;;;;5043998;28;20233;-78
2022/04/16 07:06:33;;;;;;;2.60;0.90;;;;;;;;;;5068522;28;20215;-78
2022/04/16 07:09:01;;;;;;;1.30;0.90;;;;;;;;;;5067317;28;20237;-77
2022/04/16 07:11:26;;;;;;;1.40;0.80;;;;;;;;;;5013054;28;20526;-77
2022/04/16 07:13:51;;;;;;;1.43;0.93;;;;;;;;;;5034638;28;20211;-77
2022/04/16 07:16:20;;;;;;;2.37;1.00;;;;;;;;;;5030030;28;20365;-78
2022/04/16 07:18:46;;;;;;;1.30;0.80;;;;;;;;;;5066263;28;20692;-79
2022/04/16 07:21:11;;;;;;;2.20;0.73;;;;;;;;;;5061556;28;20218;-78
2022/04/16 07:23:44;;;;;;;2.07;0.90;;;;;;;;;;5050089;28;20219;-80
2022/04/16 07:26:09;;;;;;;3.33;1.00;;;;;;;;;;5069819;28;20306;-78
2022/04/16 07:28:38;;;;;;;1.60;0.83;;;;;;;;;;5082352;28;20226;-77
2022/04/16 07:31:03;;;;;;;1.83;0.70;;;;;;;;;;5087456;28;20254;-79
2022/04/16 07:33:29;;;;;;;0.87;0.77;;;;;;;;;;5049179;28;20230;-77
2022/04/16 07:35:57;;;;;;;1.10;0.80;;;;;;;;;;5048521;28;20230;-78
2022/04/16 07:38:22;;;;;;;1.67;0.90;;;;;;;;;;5077170;28;20646;-78
2022/04/16 07:40:50;;;;;;;1.13;0.80;;;;;;;;;;5065984;28;20218;-80
2022/04/16 07:43:16;;;;;;;1.60;0.90;;;;;;;;;;5027366;28;20337;-80
2022/04/16 07:45:44;;;;;;;1.23;0.63;;;;;;;;;;5062416;28;20255;-80
2022/04/16 07:48:10;;;;;;;2.03;1.00;;;;;;;;;;5057828;28;20230;-79
2022/04/16 07:50:37;;;;;;;0.87;0.70;;;;;;;;;;5049149;28;20290;-79
2022/04/16 07:53:06;;;;;;;1.17;0.80;;;;;;;;;;5047598;28;20215;-79
2022/04/16 07:55:33;;;;;;;1.40;0.60;;;;;;;;;;5050294;28;20230;-79
2022/04/16 07:58:00;;;;;;;0.90;0.77;;;;;;;;;;5067066;28;20718;-79
2022/04/16 08:00:28;;;;;;;1.37;0.60;;;;;;;;;;5053655;28;20234;-78
2022/04/16 08:02:54;;;;;;;0.57;0.40;;;;;;;;;;5035423;28;20644;-80
2022/04/16 08:05:21;;;;;;;1.03;0.60;;;;;;;;;;5039218;28;20227;-77
2022/04/16 08:07:49;;;;;;;1.07;0.60;;;;;;;;;;5061038;28;20223;-80
2022/04/16 08:10:16;;;;;;;0.70;0.50;;;;;;;;;;5046059;28;20955;-81
2022/04/16 08:12:44;;;;;;;1.40;0.57;;;;;;;;;;5045358;28;20215;-79
2022/04/16 08:15:12;;;;;;;0.60;0.57;;;;;;;;;;5067174;28;20243;-79
2022/04/16 08:17:37;;;;;;;0.60;0.60;;;;;;;;;;5030227;28;20226;-78
2022/04/16 08:20:05;;;;;;;1.07;0.53;;;;;;;;;;5048657;28;20307;-80
2022/04/16 08:22:34;;;;;;;1.00;0.40;;;;;;;;;;5036108;28;20696;-79
2022/04/16 08:27:48;;;;;;;1.17;0.60;;;;;;;;;;5070483;28;20223;-79
2022/04/16 08:30:15;;;;;;;0.30;0.30;;;;;;;;;;5051762;28;20232;-79
2022/04/16 08:32:45;;;;;;;0.30;0.30;;;;;;;;;;5047519;28;20215;-80
2022/04/16 08:35:12;;;;;;;1.43;0.47;;;;;;;;;;5049383;28;20223;-78
2022/04/16 08:37:37;;;;;;;0.60;0.50;;;;;;;;;;5063874;28;20231;-79
2022/04/16 08:40:06;;;;;;;0.57;0.50;;;;;;;;;;5070564;28;20239;-78
2022/04/16 08:42:38;;;;;;;0.30;0.30;;;;;;;;;;5029380;28;20688;-79
2022/04/16 08:45:08;;;;;;;0.97;0.43;;;;;;;;;;5065177;28;20216;-78
2022/04/16 08:47:34;;;;;;;0.63;0.50;;;;;;;;;;5031243;28;20219;-79
2022/04/16 08:49:59;;;;;;;0.43;0.40;;;;;;;;;;5073495;28;20226;-78
2022/04/16 08:52:31;;;;;;;0.87;0.50;;;;;;;;;;5066852;28;20219;-79
2022/04/16 08:55:00;;;;;;;0.67;0.50;;;;;;;;;;5069784;28;20310;-79
2022/04/16 08:57:28;;;;;;;0.70;0.50;;;;;;;;;;5070136;28;20220;-79
2022/04/16 08:59:57;;;;;;;1.27;0.40;;;;;;;;;;5079937;28;20219;-77
2022/04/16 09:02:24;;;;;;;0.70;0.50;;;;;;;;;;5044253;28;20644;-80
2022/04/16 09:04:49;;;;;;;0.60;0.60;;;;;;;;;;5070267;28;20217;-76
2022/04/16 09:07:17;;;;;;;0.57;0.50;;;;;;;;;;5055258;28;20226;-77
2022/04/16 09:09:45;;;;;;;0.50;0.50;;;;;;;;;;5040267;28;20219;-77
2022/04/16 09:12:19;;;;;;;1.40;0.60;;;;;;;;;;5053633;28;20712;-78
2022/04/16 09:14:45;;;;;;;1.83;0.70;;;;;;;;;;5087716;28;20223;-76
2022/04/16 09:17:18;;;;;;;0.97;0.60;;;;;;;;;;5044967;28;20227;-77
2022/04/16 09:19:52;;;;;;;0.40;0.40;;;;;;;;;;5047545;28;20223;-78
2022/04/16 09:22:30;;;;;;;0.60;0.50;;;;;;;;;;5057021;28;20279;-77
2022/04/16 09:24:58;;;;;;;2.13;0.67;;;;;;;;;;5058792;28;20223;-77
2022/04/16 09:27:24;;;;;;;1.40;0.50;;;;;;;;;;5050798;28;20321;-77
2022/04/16 09:29:54;;;;;;;1.47;0.60;;;;;;;;;;5072175;28;20223;-78
2022/04/16 09:32:23;;;;;;;0.53;0.40;;;;;;;;;;5063613;28;20249;-78
2022/04/16 09:34:51;;;;;;;0.60;0.60;;;;;;;;;;5057258;28;20241;-78
2022/04/16 09:37:19;;;;;;;1.13;0.60;;;;;;;;;;5072697;28;20238;-78
2022/04/16 09:39:47;;;;;;;1.80;0.57;;;;;;;;;;5056356;28;20229;-78
2022/04/16 09:42:25;;;;;;;0.70;0.50;;;;;;;;;;5070187;28;20250;-79
2022/04/16 09:44:53;;;;;;;0.50;0.50;;;;;;;;;;5058002;28;20356;-79
2022/04/16 09:47:22;;;;;;;1.50;0.60;;;;;;;;;;5065464;28;20278;-80
2022/04/16 09:49:47;;;;;;;1.17;0.50;;;;;;;;;;5054473;28;20669;-79
2022/04/16 09:52:13;;;;;;;0.50;0.40;;;;;;;;;;5046556;28;20253;-80
2022/04/16 09:54:45;;;;;;;0.50;0.50;;;;;;;;;;5067056;28;20220;-78
2022/04/16 09:57:15;;;;;;;0.57;0.47;;;;;;;;;;5025799;28;20227;-79
2022/04/16 09:59:42;;;;;;;2.53;0.50;;;;;;;;;;5048420;28;20223;-78
2022/04/16 10:02:10;;;;;;;0.70;0.63;;;;;;;;;;5046179;28;20216;-80
2022/04/16 10:04:36;;;;;;;0.60;0.60;;;;;;;;;;5046688;28;20222;-79
2022/04/16 10:07:01;;;;;;;1.43;0.70;;;;;;;;;;5051011;28;20240;-79
2022/04/16 10:09:30;;;;;;;1.17;0.50;;;;;;;;;;5066664;28;20222;-79
2022/04/16 10:14:52;;;;;;;0.63;0.60;;;;;;;;;;5054742;28;20309;-79
2022/04/16 10:17:27;;;;;;;0.60;0.50;;;;;;;;;;5059719;28;20219;-79
2022/04/16 10:19:56;;;;;;;0.63;0.40;;;;;;;;;;5043529;28;20313;-79
2022/04/16 10:22:27;;;;;;;0.80;0.47;;;;;;;;;;5040702;28;20451;-79
2022/04/16 10:24:58;;;;;;;0.57;0.40;;;;;;;;;;5052475;28;20219;-78
2022/04/16 10:27:30;;;;;;;1.03;0.40;;;;;;;;;;5067631;28;20215;-79
2022/04/16 10:30:02;;;;;;;0.87;0.40;;;;;;;;;;5036227;28;20292;-79
2022/04/16 10:32:40;;;;;;;0.73;0.40;;;;;;;;;;5038660;28;20428;-80
2022/04/16 10:35:17;;;;;;;0.97;0.40;;;;;;;;;;5032365;28;20711;-79
2022/04/16 10:37:44;;;;;;;1.70;0.40;;;;;;;;;;5067913;28;20229;-79
2022/04/16 10:40:22;;;;;;;0.63;0.40;;;;;;;;;;5053670;28;20625;-78
2022/04/16 10:42:52;;;;;;;0.73;0.30;;;;;;;;;;5070491;28;20241;-79
2022/04/16 10:45:20;;;;;;;0.40;0.40;;;;;;;;;;5053127;28;20238;-79
2022/04/16 10:47:52;;;;;;;0.87;0.50;;;;;;;;;;5089953;28;20211;-79
2022/04/16 10:50:20;;;;;;;0.60;0.30;;;;;;;;;;5061855;28;20231;-79
2022/04/16 10:52:55;;;;;;;0.50;0.40;;;;;;;;;;5080830;28;20298;-78
2022/04/16 10:55:25;;;;;;;0.63;0.40;;;;;;;;;;5079956;28;20246;-79
2022/04/16 10:58:04;;;;;;;0.90;0.50;;;;;;;;;;5078766;28;20218;-79
2022/04/16 11:00:41;;;;;;;0.40;0.40;;;;;;;;;;5058928;28;20234;-77
2022/04/16 11:03:35;;;;;;;0.30;0.30;;;;;;;;;;5080667;28;20222;-77
2022/04/16 11:06:05;;;;;;;0.33;0.33;;;;;;;;;;5079500;28;20223;-78
2022/04/16 11:08:35;;;;;;;0.67;0.57;;;;;;;;;;5061949;28;20223;-76
2022/04/16 11:11:05;;;;;;;0.83;0.60;;;;;;;;;;5069619;28;20227;-78
2022/04/16 11:13:34;;;;;;;0.37;0.30;;;;;;;;;;5064938;28;20223;-78
2022/04/16 11:16:01;;;;;;;0.40;0.40;;;;;;;;;;5059237;28;20276;-78
2022/04/16 11:18:38;;;;;;;0.43;0.40;;;;;;;;;;5065584;28;20277;-79
2022/04/16 11:21:07;;;;;;;0.73;0.40;;;;;;;;;;5074180;28;20219;-77
2022/04/16 11:23:42;;;;;;;0.33;0.33;;;;;;;;;;5089337;28;20221;-80
2022/04/16 11:34:34;;;;;;;0.87;0.60;;;;;;;;;;5084004;28;20206;-78
2022/04/16 11:36:59;;;;;;;0.73;0.60;;;;;;;;;;5089790;28;20245;-78
2022/04/16 11:39:26;;;;;;;0.97;0.60;;;;;;;;;;5087966;28;20215;-78
2022/04/16 11:41:53;;;;;;;0.97;0.50;;;;;;;;;;5077781;28;20237;-80
2022/04/16 11:44:38;;;;;;;1.20;0.40;;;;;;;;;;5079525;28;20215;-79
2022/04/16 11:47:22;;;;;;;0.77;0.53;;;;;;;;;;5083564;28;20243;-79
2022/04/16 11:49:55;;;;;;;1.30;0.40;;;;;;;;;;5064470;28;20238;-79
2022/04/16 11:52:24;;;;;;;0.57;0.50;;;;;;;;;;5072097;28;20228;-78
2022/04/16 11:55:14;;;;;;;0.60;0.60;;;;;;;;;;5070070;28;20223;-79
2022/04/16 11:57:43;;;;;;;0.70;0.43;;;;;;;;;;5070668;28;20246;-79
2022/04/16 12:00:10;;;;;;;0.73;0.60;;;;;;;;;;5066641;28;20238;-79
2022/04/16 12:02:43;;;;;;;0.50;0.50;;;;;;;;;;5065995;28;20211;-79
2022/04/16 12:05:12;;;;;;;0.57;0.53;;;;;;;;;;5061897;28;20215;-79
2022/04/16 12:07:45;;;;;;;0.60;0.60;;;;;;;;;;5062490;28;20219;-79
2022/04/16 12:10:17;;;;;;;1.23;0.70;;;;;;;;;;5059102;28;20231;-80
2022/04/16 12:12:53;;;;;;;1.43;0.70;;;;;;;;;;5062507;28;20253;-79
2022/04/16 12:15:28;;;;;;;0.60;0.60;;;;;;;;;;5073386;28;20215;-79
2022/04/16 12:17:57;;;;;;;0.83;0.60;;;;;;;;;;5070262;28;20227;-78
2022/04/16 12:20:24;;;;;;;0.73;0.60;;;;;;;;;;5068267;28;20238;-79
2022/04/16 12:22:59;;;;;;;0.80;0.60;;;;;;;;;;5068366;28;20226;-80
2022/04/16 12:25:26;;;;;;;0.70;0.60;;;;;;;;;;5064701;28;20222;-79
2022/04/16 12:27:53;;;;;;;1.80;0.90;;;;;;;;;;5074201;28;20222;-80
2022/04/16 12:30:26;;;;;;;1.70;1.10;;;;;;;;;;5063121;28;20227;-79
2022/04/16 12:33:05;;;;;;;0.83;0.80;;;;;;;;;;5058205;28;20661;-79
2022/04/16 12:35:34;;;;;;;0.90;0.70;;;;;;;;;;5065621;28;20298;-79
2022/04/16 12:38:03;;;;;;;0.93;0.77;;;;;;;;;;5062403;28;20215;-79
2022/04/16 12:40:30;;;;;;;2.20;0.80;;;;;;;;;;5068594;28;20227;-78
2022/04/16 12:42:56;;;;;;;0.73;0.60;;;;;;;;;;5059621;28;20227;-78
2022/04/16 12:45:24;;;;;;;0.77;0.63;;;;;;;;;;5073219;28;21735;-79
2022/04/16 12:47:50;;;;;;;0.70;0.70;;;;;;;;;;5072896;28;20230;-77
2022/04/16 12:50:16;;;;;;;1.10;0.70;;;;;;;;;;5075292;28;20235;-78
2022/04/16 12:52:45;;;;;;;1.77;0.70;;;;;;;;;;5077081;28;20225;-77
2022/04/16 12:55:10;;;;;;;1.27;0.80;;;;;;;;;;5076481;28;20222;-78
2022/04/16 12:57:36;;;;;;;0.73;0.73;;;;;;;;;;5060929;28;20227;-78
2022/04/16 13:00:05;;;;;;;1.00;0.60;;;;;;;;;;5064120;28;20249;-78
2022/04/16 13:02:33;;;;;;;0.73;0.73;;;;;;;;;;5039025;28;20219;-78
2022/04/16 13:04:59;;;;;;;2.10;0.83;;;;;;;;;;5070797;28;20218;-80
2022/04/16 13:07:24;;;;;;;0.70;0.60;;;;;;;;;;5072404;28;20223;-79
2022/04/16 13:09:50;;;;;;;0.70;0.70;;;;;;;;;;5069882;28;20764;-79
2022/04/16 13:12:19;;;;;;;0.60;0.60;;;;;;;;;;5065976;28;20254;-80
2022/04/16 13:14:47;;;;;;;1.23;0.83;;;;;;;;;;5067359;28;20220;-79
2022/04/16 13:17:15;;;;;;;1.37;1.27;;;;;;;;;;5045215;28;20226;-78
2022/04/16 13:19:43;;;;;;;1.33;0.70;;;;;;;;;;5063286;28;20586;-80
2022/04/16 13:22:09;;;;;;;0.60;0.60;;;;;;;;;;5059862;28;20311;-78
2022/04/16 13:24:38;;;;;;;1.20;0.60;;;;;;;;;;5063441;28;20245;-80
2022/04/16 13:27:06;;;;;;;1.53;0.80;;;;;;;;;;5069807;28;20363;-79
2022/04/16 13:29:31;;;;;;;0.60;0.50;;;;;;;;;;5053635;28;20243;-78
2022/04/16 13:32:00;;;;;;;1.00;0.83;;;;;;;;;;5064963;28;20289;-79
2022/04/16 13:34:35;;;;;;;0.70;0.70;;;;;;;;;;5068171;28;20218;-77
2022/04/16 13:37:01;;;;;;;1.40;0.57;;;;;;;;;;5068517;28;20238;-79
2022/04/16 13:42:10;;;;;;;0.60;0.53;;;;;;;;;;5063893;28;20305;-80
2022/04/16 13:44:36;;;;;;;0.73;0.70;;;;;;;;;;5068811;28;20297;-81
2022/04/16 13:47:04;;;;;;;0.97;0.90;;;;;;;;;;5060192;28;20269;-80
2022/04/16 13:49:31;;;;;;;2.10;0.90;;;;;;;;;;5061626;28;20222;-79
2022/04/16 13:51:59;;;;;;;1.20;0.60;;;;;;;;;;5055416;28;20234;-79
2022/04/16 13:54:25;;;;;;;0.70;0.50;;;;;;;;;;5056888;28;20247;-79
2022/04/16 13:56:56;;;;;;;1.33;0.60;;;;;;;;;;5041603;28;20216;-78
2022/04/16 13:59:21;;;;;;;1.27;0.90;;;;;;;;;;5060547;28;20231;-79
2022/04/16 14:01:50;;;;;;;1.00;0.90;;;;;;;;;;5067330;28;20290;-78
2022/04/16 14:04:16;;;;;;;1.53;0.60;;;;;;;;;;5079550;28;20219;-78
2022/04/16 14:06:42;;;;;;;1.47;0.60;;;;;;;;;;5065537;28;20225;-78
2022/04/16 14:09:10;;;;;;;0.60;0.60;;;;;;;;;;5062779;28;20231;-77
2022/04/16 14:11:37;;;;;;;0.57;0.50;;;;;;;;;;5068393;28;20232;-78
2022/04/16 14:14:03;;;;;;;1.37;0.50;;;;;;;;;;5070272;28;20218;-77
2022/04/16 14:16:28;;;;;;;0.57;0.50;;;;;;;;;;5064545;28;20222;-77
2022/04/16 14:18:54;;;;;;;0.70;0.70;;;;;;;;;;5054219;28;20807;-78
2022/04/16 14:21:21;;;;;;;1.10;0.60;;;;;;;;;;5060965;28;20234;-77
2022/04/16 14:23:49;;;;;;;1.27;0.80;;;;;;;;;;5081337;28;20215;-77
2022/04/16 14:26:19;;;;;;;2.33;0.80;;;;;;;;;;5073674;28;20219;-78
2022/04/16 14:28:45;;;;;;;0.80;0.80;;;;;;;;;;5068514;28;20293;-78
2022/04/16 14:31:10;;;;;;;1.07;0.60;;;;;;;;;;5048091;28;20257;-77
2022/04/16 14:33:43;;;;;;;0.63;0.60;;;;;;;;;;5047659;28;20229;-79
2022/04/16 14:36:09;;;;;;;0.50;0.50;;;;;;;;;;5063591;28;20314;-78
2022/04/16 14:38:39;;;;;;;2.40;0.60;;;;;;;;;;5058736;28;20223;-79
2022/04/16 14:41:10;;;;;;;0.73;0.60;;;;;;;;;;5067217;28;20219;-79
2022/04/16 14:43:47;;;;;;;1.73;0.70;;;;;;;;;;5040872;28;20607;-79
2022/04/16 14:46:16;;;;;;;0.93;0.53;;;;;;;;;;5062237;28;20302;-78
2022/04/16 14:48:42;;;;;;;0.73;0.65;;;;;;;;;;5058644;28;20219;-80
2022/04/16 14:51:12;;;;;;;0.52;0.52;;;;;;;;;;5043166;28;20223;-78
2022/04/16 14:53:39;;;;;;;0.70;0.50;;;;;;;;;;5064364;28;20219;-79
2022/04/16 14:56:05;;;;;;;1.00;0.40;;;;;;;;;;5064159;28;20222;-79
2022/04/16 14:58:30;;;;;;;0.82;0.60;;;;;;;;;;5064189;28;20313;-80
2022/04/16 15:00:56;;;;;;;1.63;0.70;;;;;;;;;;5065083;28;20356;-80
2022/04/16 15:03:21;;;;;;;1.57;0.70;;;;;;;;;;5068237;28;20225;-78
2022/04/16 15:05:49;;;;;;;0.53;0.50;;;;;;;;;;5064890;28;20221;-79
2022/04/16 15:08:17;;;;;;;1.10;0.70;;;;;;;;;;5074169;28;20218;-78
2022/04/16 15:10:42;;;;;;;1.17;0.70;;;;;;;;;;5073791;28;20703;-78
2022/04/16 15:13:11;;;;;;;0.73;0.63;;;;;;;;;;5056127;28;20235;-79
2022/04/16 15:15:38;;;;;;;1.13;0.60;;;;;;;;;;5059116;28;20245;-79
2022/04/16 15:18:11;;;;;;;1.67;0.67;;;;;;;;;;5065403;28;20211;-80